Time;durP1;ratioP1;P1;durP2;ratioP2;P2;SDS_P1;SDS_P2;PMS_P1;PMS_P2;Temp;Humidity;BMP_temperature;BMP_pressure;BME280_temperature;BME280_humidity;BME280_pressure;Samples;Min_cycle;Max_cycle;Signal;HPM_P1;HPM_P2
2022/04/06 00:00:13;;;;;;;25.92;13.60;;;9.00;89.20;;;;;;5050192;28;20044;-66
2022/04/06 00:02:40;;;;;;;30.75;13.65;;;9.00;89.30;;;;;;5049907;28;20136;-66
2022/04/06 00:05:09;;;;;;;34.30;15.05;;;9.00;89.20;;;;;;5049653;28;20091;-65
2022/04/06 00:07:35;;;;;;;33.92;14.38;;;9.00;89.10;;;;;;5049520;28;20045;-66
2022/04/06 00:10:01;;;;;;;23.17;13.55;;;9.00;89.10;;;;;;5050068;28;20037;-66
2022/04/06 00:12:27;;;;;;;27.60;14.32;;;9.10;89.10;;;;;;5049331;28;20044;-67
2022/04/06 00:14:52;;;;;;;24.17;12.90;;;9.10;89.10;;;;;;5049466;28;20041;-66
2022/04/06 00:17:18;;;;;;;35.58;16.50;;;9.10;89.00;;;;;;5049677;28;20032;-66
2022/04/06 00:19:43;;;;;;;25.90;13.82;;;9.10;89.00;;;;;;5048710;28;20045;-67
2022/04/06 00:22:09;;;;;;;25.63;13.20;;;9.10;88.90;;;;;;5048253;28;20041;-67
2022/04/06 00:24:35;;;;;;;21.25;14.50;;;9.00;88.90;;;;;;5049232;28;20161;-67
2022/04/06 00:27:00;;;;;;;21.33;12.38;;;9.10;88.80;;;;;;5049390;28;20048;-66
2022/04/06 00:29:26;;;;;;;24.58;11.38;;;9.10;88.70;;;;;;5049456;28;20032;-66
2022/04/06 00:31:51;;;;;;;22.60;11.93;;;9.10;88.60;;;;;;5049053;28;20127;-67
2022/04/06 00:34:17;;;;;;;26.98;13.98;;;9.10;88.60;;;;;;5049180;28;20041;-66
2022/04/06 00:36:42;;;;;;;21.40;11.60;;;9.10;88.60;;;;;;5049361;28;20493;-66
2022/04/06 00:39:09;;;;;;;28.60;12.23;;;9.10;88.60;;;;;;5049190;28;20041;-64
2022/04/06 00:41:35;;;;;;;27.73;12.25;;;9.20;88.40;;;;;;5048938;28;20033;-65
2022/04/06 00:44:15;;;;;;;20.80;10.35;;;9.20;88.30;;;;;;5049371;28;20045;-66
2022/04/06 00:46:45;;;;;;;21.33;9.80;;;9.20;88.00;;;;;;5047931;28;20041;-66
2022/04/06 00:49:14;;;;;;;18.33;10.77;;;9.20;88.10;;;;;;5048636;28;20811;-66
2022/04/06 00:51:47;;;;;;;22.42;10.55;;;9.30;87.80;;;;;;5048584;28;20045;-66
2022/04/06 00:54:14;;;;;;;15.63;10.07;;;9.30;87.80;;;;;;5048555;28;20041;-66
2022/04/06 00:56:42;;;;;;;20.92;10.98;;;9.30;87.70;;;;;;5048507;28;20506;-66
2022/04/06 00:59:08;;;;;;;25.40;9.68;;;9.30;87.70;;;;;;5047550;28;20603;-66
2022/04/06 01:01:34;;;;;;;19.85;9.98;;;9.30;87.60;;;;;;5048874;28;20092;-66
2022/04/06 01:04:00;;;;;;;17.30;9.50;;;9.30;87.50;;;;;;5048734;28;20068;-67
2022/04/06 01:06:25;;;;;;;16.73;8.82;;;9.30;87.40;;;;;;5048188;28;20130;-66
2022/04/06 01:08:52;;;;;;;22.30;8.82;;;9.30;87.40;;;;;;5046683;28;20052;-66
2022/04/06 01:11:19;;;;;;;15.45;9.15;;;9.30;87.30;;;;;;5046922;28;20048;-65
2022/04/06 01:13:45;;;;;;;25.80;9.50;;;9.40;87.10;;;;;;5047221;28;20386;-66
2022/04/06 01:16:11;;;;;;;16.42;8.73;;;9.40;86.90;;;;;;5029849;28;20045;-66
2022/04/06 01:18:37;;;;;;;17.25;9.02;;;9.40;87.00;;;;;;5045940;28;20049;-65
2022/04/06 01:21:03;;;;;;;16.40;8.20;;;9.40;87.00;;;;;;5046940;28;20061;-66
2022/04/06 01:23:30;;;;;;;12.45;8.43;;;9.30;86.70;;;;;;5047439;28;20100;-66
2022/04/06 01:25:55;;;;;;;17.35;7.85;;;9.30;86.80;;;;;;5047295;28;20041;-66
2022/04/06 01:28:21;;;;;;;13.27;8.35;;;9.40;86.80;;;;;;5047341;28;20194;-66
2022/04/06 01:30:47;;;;;;;19.50;8.30;;;9.30;86.70;;;;;;5046867;28;20082;-66
2022/04/06 01:33:13;;;;;;;15.73;8.00;;;9.40;86.60;;;;;;5047350;28;20048;-66
2022/04/06 01:35:41;;;;;;;12.65;8.05;;;9.30;86.60;;;;;;5046961;28;20033;-66
2022/04/06 01:38:07;;;;;;;14.45;8.40;;;9.30;86.60;;;;;;5046893;28;20049;-66
2022/04/06 01:40:33;;;;;;;15.60;7.45;;;9.40;86.50;;;;;;5046905;28;20099;-66
2022/04/06 01:42:59;;;;;;;13.50;7.80;;;9.30;85.90;;;;;;5045576;28;20466;-66
2022/04/06 01:45:25;;;;;;;12.80;7.53;;;9.30;86.30;;;;;;5047161;28;20051;-66
2022/04/06 01:47:51;;;;;;;14.10;6.95;;;9.30;86.30;;;;;;5046895;28;20413;-66
2022/04/06 01:53:02;;;;;;;12.55;7.40;;;9.30;85.60;;;;;;5044683;28;20071;-67
2022/04/06 01:55:28;;;;;;;8.88;6.25;;;9.30;85.50;;;;;;5044414;28;20045;-66
2022/04/06 01:57:53;;;;;;;11.88;5.95;;;9.30;85.00;;;;;;5046782;28;20152;-66
2022/04/06 02:00:20;;;;;;;13.63;5.57;;;9.40;85.20;;;;;;5047187;28;20408;-66
2022/04/06 02:02:50;;;;;;;11.38;6.00;;;9.30;84.30;;;;;;5047411;28;20040;-67
2022/04/06 02:05:17;;;;;;;14.27;6.20;;;9.30;83.90;;;;;;5047136;28;20037;-66
2022/04/06 02:07:46;;;;;;;9.25;5.43;;;9.40;84.20;;;;;;5046722;28;20811;-66
2022/04/06 02:10:12;;;;;;;8.93;5.15;;;9.40;83.90;;;;;;5047467;28;20037;-66
2022/04/06 02:12:38;;;;;;;10.93;5.10;;;9.50;83.80;;;;;;5050594;28;20044;-66
2022/04/06 02:15:05;;;;;;;9.65;5.20;;;9.50;83.60;;;;;;5050584;28;20094;-66
2022/04/06 02:17:31;;;;;;;10.98;5.68;;;9.50;83.40;;;;;;5050821;28;20029;-66
2022/04/06 02:19:57;;;;;;;12.35;4.97;;;9.50;83.60;;;;;;5051045;28;20125;-66
2022/04/06 02:22:23;;;;;;;10.82;5.28;;;9.40;83.50;;;;;;5050704;28;20132;-66
2022/04/06 02:24:49;;;;;;;7.78;5.05;;;9.40;83.60;;;;;;5050371;28;20176;-67
2022/04/06 02:27:15;;;;;;;16.08;5.95;;;9.40;83.30;;;;;;5049986;28;20120;-66
2022/04/06 02:29:41;;;;;;;9.48;6.05;;;9.40;83.70;;;;;;5050040;28;20041;-66
2022/04/06 02:32:07;;;;;;;11.85;5.60;;;9.40;83.60;;;;;;5049037;28;20176;-66
2022/04/06 02:34:33;;;;;;;10.95;6.50;;;9.40;83.60;;;;;;5050345;28;20136;-66
2022/04/06 02:37:00;;;;;;;12.35;5.55;;;9.40;83.50;;;;;;5049995;28;20124;-66
2022/04/06 02:39:25;;;;;;;10.38;5.88;;;9.40;83.30;;;;;;5049737;28;20041;-66
2022/04/06 02:41:51;;;;;;;14.55;6.35;;;9.50;83.50;;;;;;5050192;28;20130;-66
2022/04/06 02:44:17;;;;;;;11.25;6.57;;;9.40;83.60;;;;;;5049770;28;20116;-67
2022/04/06 02:46:44;;;;;;;9.45;6.10;;;9.40;83.60;;;;;;5049957;28;20044;-66
2022/04/06 02:49:10;;;;;;;11.25;6.40;;;9.40;83.70;;;;;;5048800;28;20107;-67
2022/04/06 02:51:35;;;;;;;12.38;7.15;;;9.40;83.80;;;;;;5049402;28;20406;-67
2022/04/06 02:54:01;;;;;;;17.25;6.78;;;9.40;83.70;;;;;;5049535;28;20127;-67
2022/04/06 02:56:28;;;;;;;15.82;7.50;;;9.40;83.80;;;;;;5049873;28;20575;-67
2022/04/06 02:58:54;;;;;;;13.50;6.88;;;9.50;83.80;;;;;;5049656;28;20049;-67
2022/04/06 03:01:20;;;;;;;18.42;8.75;;;9.50;83.90;;;;;;5049619;28;20453;-67
2022/04/06 03:03:46;;;;;;;16.33;7.55;;;9.50;84.00;;;;;;5049531;28;20532;-66
2022/04/06 03:06:12;;;;;;;14.18;7.22;;;9.40;84.10;;;;;;5049698;28;20033;-67
2022/04/06 03:08:37;;;;;;;10.05;7.20;;;9.40;84.40;;;;;;5049214;28;20053;-67
2022/04/06 03:11:03;;;;;;;16.48;7.32;;;9.50;84.40;;;;;;5049012;28;20414;-67
2022/04/06 03:13:29;;;;;;;17.77;10.07;;;9.30;84.70;;;;;;5046649;28;20036;-66
2022/04/06 03:15:55;;;;;;;15.98;9.38;;;9.30;84.90;;;;;;5050899;28;20578;-66
2022/04/06 03:18:21;;;;;;;12.63;8.93;;;9.30;85.10;;;;;;5050980;28;20070;-66
2022/04/06 03:20:47;;;;;;;12.50;8.27;;;9.30;85.00;;;;;;5050377;28;20545;-66
2022/04/06 03:23:15;;;;;;;15.55;8.05;;;9.30;85.10;;;;;;5049707;28;20120;-66
2022/04/06 03:25:41;;;;;;;15.75;8.70;;;9.30;85.00;;;;;;5049881;28;20421;-66
2022/04/06 03:28:06;;;;;;;19.23;8.48;;;9.20;85.10;;;;;;5050972;28;20116;-66
2022/04/06 03:30:32;;;;;;;17.75;8.30;;;9.30;85.20;;;;;;5050609;28;20048;-66
2022/04/06 03:32:57;;;;;;;21.25;9.95;;;9.30;85.00;;;;;;5050029;28;20057;-66
2022/04/06 03:35:23;;;;;;;11.90;7.55;;;9.30;85.10;;;;;;5050008;28;20044;-66
2022/04/06 03:37:50;;;;;;;16.80;8.57;;;9.30;85.20;;;;;;5050187;28;20513;-66
2022/04/06 03:40:16;;;;;;;16.98;8.85;;;9.20;85.20;;;;;;5049947;28;20517;-66
2022/04/06 03:42:42;;;;;;;17.92;9.00;;;9.30;85.10;;;;;;5050090;28;20044;-66
2022/04/06 03:45:09;;;;;;;16.85;7.95;;;9.30;85.20;;;;;;5049300;28;20423;-65
2022/04/06 03:47:35;;;;;;;20.27;8.65;;;9.30;85.20;;;;;;5049844;28;20663;-66
2022/04/06 03:50:02;;;;;;;15.60;8.60;;;9.30;84.90;;;;;;5049091;28;20108;-65
2022/04/06 03:52:28;;;;;;;15.90;8.40;;;9.30;85.20;;;;;;5050199;28;20049;-66
2022/04/06 03:54:54;;;;;;;12.65;8.43;;;9.20;85.50;;;;;;5049419;28;20457;-66
2022/04/06 03:57:20;;;;;;;18.77;9.70;;;9.20;85.50;;;;;;5048363;28;21194;-66
2022/04/06 03:59:46;;;;;;;14.68;8.73;;;9.20;85.80;;;;;;5049281;28;20037;-66
2022/04/06 04:02:11;;;;;;;16.73;7.72;;;9.20;85.80;;;;;;5049383;28;20064;-65
2022/04/06 04:04:37;;;;;;;26.58;10.50;;;9.10;86.20;;;;;;5047002;28;20387;-66
2022/04/06 04:07:03;;;;;;;16.30;9.00;;;9.10;86.50;;;;;;5046688;28;20045;-64
2022/04/06 04:09:29;;;;;;;20.35;11.57;;;9.00;86.80;;;;;;5049533;28;20132;-65
2022/04/06 04:11:58;;;;;;;26.02;9.50;;;8.90;87.20;;;;;;5049657;28;20132;-65
2022/04/06 04:14:24;;;;;;;18.38;8.50;;;8.90;87.30;;;;;;5048332;28;20084;-65
2022/04/06 04:16:50;;;;;;;19.23;10.27;;;8.90;87.20;;;;;;5049632;28;20516;-65
2022/04/06 04:19:16;;;;;;;21.23;8.77;;;8.90;87.40;;;;;;5049914;28;20059;-66
2022/04/06 04:21:42;;;;;;;17.02;9.18;;;8.90;87.50;;;;;;5039792;28;20048;-66
2022/04/06 04:24:08;;;;;;;21.27;9.35;;;8.90;87.60;;;;;;5036024;28;20037;-65
2022/04/06 04:26:36;;;;;;;25.83;10.02;;;8.90;87.90;;;;;;5031755;28;20484;-65
2022/04/06 04:29:02;;;;;;;27.50;9.48;;;8.80;88.10;;;;;;5047486;28;20053;-66
2022/04/06 04:31:28;;;;;;;18.42;8.73;;;8.80;88.30;;;;;;5046930;28;20053;-66
2022/04/06 04:33:53;;;;;;;20.80;8.93;;;8.70;88.50;;;;;;5047763;28;20088;-67
2022/04/06 04:36:19;;;;;;;20.40;8.25;;;8.70;88.60;;;;;;5045920;28;20049;-66
2022/04/06 04:38:45;;;;;;;21.63;8.23;;;8.70;88.60;;;;;;5049722;28;20049;-66
2022/04/06 04:41:12;;;;;;;22.30;9.38;;;8.60;89.00;;;;;;5046732;28;20581;-66
2022/04/06 04:43:37;;;;;;;22.90;8.75;;;8.60;89.10;;;;;;5041256;28;20045;-66
2022/04/06 04:46:04;;;;;;;15.90;8.23;;;8.60;89.10;;;;;;5040653;28;20127;-66
2022/04/06 04:48:30;;;;;;;18.17;8.82;;;8.60;89.10;;;;;;5040409;28;20037;-66
2022/04/06 04:50:56;;;;;;;22.30;8.57;;;8.60;89.00;;;;;;5040728;28;20052;-66
2022/04/06 04:53:22;;;;;;;21.90;7.82;;;8.60;89.20;;;;;;5031566;28;20041;-66
2022/04/06 04:55:47;;;;;;;20.42;8.60;;;8.60;89.40;;;;;;5042953;28;20106;-65
2022/04/06 04:58:13;;;;;;;17.33;7.90;;;8.60;89.20;;;;;;5038318;28;20552;-66
2022/04/06 05:00:39;;;;;;;16.85;8.32;;;8.60;89.50;;;;;;5044166;28;20596;-67
2022/04/06 05:03:05;;;;;;;18.70;8.85;;;8.60;89.70;;;;;;5034299;28;20111;-66
2022/04/06 05:05:31;;;;;;;18.80;7.88;;;8.60;89.70;;;;;;5038953;28;20164;-67
2022/04/06 05:07:58;;;;;;;22.85;7.80;;;8.50;89.90;;;;;;5046568;28;20071;-68
2022/04/06 05:10:25;;;;;;;23.75;8.40;;;8.50;90.20;;;;;;5049056;28;20052;-67
2022/04/06 05:12:51;;;;;;;25.48;8.07;;;8.50;90.10;;;;;;5047990;28;20533;-66
2022/04/06 05:15:16;;;;;;;24.90;9.02;;;8.50;90.20;;;;;;5049029;28;20051;-66
2022/04/06 05:17:42;;;;;;;28.30;10.27;;;8.50;90.10;;;;;;5038234;28;20052;-67
2022/04/06 05:20:10;;;;;;;28.77;9.20;;;8.50;90.50;;;;;;5043624;28;20033;-67
2022/04/06 05:22:35;;;;;;;24.80;8.38;;;8.40;90.60;;;;;;5046877;28;20052;-66
2022/04/06 05:25:04;;;;;;;25.48;8.13;;;8.40;90.60;;;;;;5035355;28;20410;-66
2022/04/06 05:27:34;;;;;;;16.98;7.88;;;8.40;90.50;;;;;;5047851;28;20430;-66
2022/04/06 05:30:00;;;;;;;22.95;7.63;;;8.40;90.80;;;;;;5046536;28;20045;-66
2022/04/06 05:32:25;;;;;;;17.92;8.07;;;8.30;91.10;;;;;;5036753;28;20095;-65
2022/04/06 05:34:51;;;;;;;20.33;8.13;;;8.40;91.10;;;;;;5037708;28;20041;-66
2022/04/06 05:37:17;;;;;;;21.42;8.30;;;8.40;91.10;;;;;;5043610;28;20060;-66
2022/04/06 05:39:42;;;;;;;25.55;8.82;;;8.40;91.10;;;;;;5041193;28;20040;-65
2022/04/06 05:42:08;;;;;;;16.80;7.05;;;8.40;91.00;;;;;;5046730;28;20039;-66
2022/04/06 05:44:34;;;;;;;22.73;7.68;;;8.40;91.20;;;;;;5037902;28;20042;-66
2022/04/06 05:47:00;;;;;;;20.60;7.22;;;8.40;91.20;;;;;;5041978;28;20048;-66
2022/04/06 05:49:25;;;;;;;19.80;7.00;;;8.30;91.40;;;;;;5037404;28;20120;-66
2022/04/06 05:51:51;;;;;;;20.23;7.63;;;8.40;91.30;;;;;;5050189;28;20052;-66
2022/04/06 05:54:17;;;;;;;20.33;8.15;;;8.40;91.40;;;;;;5042148;28;20144;-66
2022/04/06 05:56:42;;;;;;;19.73;6.95;;;8.40;91.30;;;;;;5045864;28;20049;-66
2022/04/06 05:59:08;;;;;;;20.45;7.72;;;8.50;91.10;;;;;;5049965;28;20045;-66
2022/04/06 06:01:33;;;;;;;23.42;8.77;;;8.40;91.10;;;;;;5034058;28;20096;-65
2022/04/06 06:03:59;;;;;;;24.70;8.40;;;8.30;91.30;;;;;;5044530;28;20033;-66
2022/04/06 06:06:24;;;;;;;16.42;6.50;;;8.40;91.30;;;;;;5049339;28;20068;-66
2022/04/06 06:08:50;;;;;;;21.25;6.97;;;8.40;91.20;;;;;;5036666;28;20466;-66
2022/04/06 06:11:15;;;;;;;23.27;8.15;;;8.40;91.10;;;;;;5045542;28;20041;-66
2022/04/06 06:13:41;;;;;;;15.68;7.00;;;8.30;91.20;;;;;;5032862;28;20132;-66
2022/04/06 06:16:07;;;;;;;21.00;6.78;;;8.40;91.10;;;;;;5035578;28;20052;-66
2022/04/06 06:18:32;;;;;;;16.98;6.90;;;8.40;91.10;;;;;;5042030;28;20049;-66
2022/04/06 06:21:00;;;;;;;18.52;8.20;;;8.50;91.10;;;;;;5050941;28;20048;-67
2022/04/06 06:23:27;;;;;;;14.43;7.15;;;8.50;90.90;;;;;;5053378;28;20072;-66
2022/04/06 06:25:53;;;;;;;19.63;7.03;;;8.40;90.90;;;;;;5053116;28;20041;-66
2022/04/06 06:28:18;;;;;;;21.23;7.80;;;8.40;90.90;;;;;;5052667;28;20052;-66
2022/04/06 06:30:44;;;;;;;20.48;6.93;;;8.40;90.90;;;;;;5051848;28;20067;-66
2022/04/06 06:33:10;;;;;;;22.13;8.63;;;8.50;90.70;;;;;;5046139;28;20529;-67
2022/04/06 06:35:36;;;;;;;31.67;7.95;;;8.50;90.80;;;;;;5048810;28;20037;-67
2022/04/06 06:38:02;;;;;;;15.93;8.63;;;8.40;90.70;;;;;;5050812;28;20045;-67
2022/04/06 06:40:28;;;;;;;20.52;6.70;;;8.40;90.70;;;;;;5050817;28;20083;-66
2022/04/06 06:42:54;;;;;;;22.08;7.22;;;8.40;90.90;;;;;;5051753;28;20418;-66
2022/04/06 06:45:21;;;;;;;19.80;7.43;;;8.40;90.80;;;;;;5052182;28;20521;-67
2022/04/06 06:47:47;;;;;;;18.33;7.80;;;8.40;90.70;;;;;;5052201;28;20048;-66
2022/04/06 06:50:16;;;;;;;19.30;7.63;;;8.40;90.70;;;;;;5052730;28;20041;-67
2022/04/06 06:52:41;;;;;;;19.27;7.10;;;8.40;90.80;;;;;;5051913;28;20048;-66
2022/04/06 06:55:08;;;;;;;23.15;8.18;;;8.40;90.90;;;;;;5051942;28;20490;-65
2022/04/06 06:57:34;;;;;;;19.58;7.68;;;8.40;90.90;;;;;;5050627;28;20051;-67
2022/04/06 07:00:00;;;;;;;21.35;7.60;;;8.50;90.90;;;;;;5049900;28;20041;-66
2022/04/06 07:02:25;;;;;;;18.77;7.28;;;8.50;90.90;;;;;;5051062;28;20052;-67
2022/04/06 07:04:51;;;;;;;21.58;8.05;;;8.40;90.80;;;;;;5050995;28;20045;-66
2022/04/06 07:07:17;;;;;;;20.27;7.85;;;8.50;90.70;;;;;;5050602;28;20041;-66
2022/04/06 07:09:42;;;;;;;23.75;7.25;;;8.60;90.60;;;;;;5050578;28;20047;-66
2022/04/06 07:12:10;;;;;;;19.02;6.72;;;8.50;90.60;;;;;;5051016;28;20049;-67
2022/04/06 07:14:36;;;;;;;20.38;7.20;;;8.50;90.50;;;;;;5050866;28;20052;-65
2022/04/06 07:17:02;;;;;;;21.95;7.63;;;8.60;90.60;;;;;;5036089;28;20426;-67
2022/04/06 07:19:28;;;;;;;15.15;8.60;;;8.60;90.50;;;;;;5040845;28;20115;-67
2022/04/06 07:21:53;;;;;;;21.73;7.13;;;8.60;90.40;;;;;;5049461;28;20083;-67
2022/04/06 07:24:19;;;;;;;24.33;6.70;;;8.60;90.50;;;;;;5050955;28;20402;-67
2022/04/06 07:26:45;;;;;;;20.50;7.22;;;8.60;90.40;;;;;;5032645;28;20048;-67
2022/04/06 07:29:13;;;;;;;20.20;7.80;;;8.60;90.40;;;;;;5050975;28;20071;-68
2022/04/06 07:31:39;;;;;;;25.50;6.95;;;8.60;90.50;;;;;;5050699;28;20572;-67
2022/04/06 07:34:05;;;;;;;19.90;8.15;;;8.60;90.50;;;;;;5050027;28;20112;-67
2022/04/06 07:36:35;;;;;;;19.15;7.97;;;8.60;90.50;;;;;;5050864;28;20045;-67
2022/04/06 07:39:04;;;;;;;23.13;7.65;;;8.60;90.60;;;;;;5050745;28;20041;-67
2022/04/06 07:41:31;;;;;;;18.25;7.22;;;8.60;90.50;;;;;;5050718;28;20123;-67
2022/04/06 07:43:57;;;;;;;23.27;6.80;;;8.60;90.70;;;;;;5050111;28;20044;-67
2022/04/06 07:46:22;;;;;;;22.60;7.57;;;8.60;90.60;;;;;;5055941;28;20093;-67
2022/04/06 07:48:48;;;;;;;22.88;7.45;;;8.60;90.60;;;;;;5070333;28;20044;-67
2022/04/06 07:51:15;;;;;;;22.13;7.00;;;8.60;90.60;;;;;;5070289;28;20047;-67
2022/04/06 07:53:40;;;;;;;23.45;7.60;;;8.60;90.70;;;;;;5066645;28;20051;-67
2022/04/06 07:56:06;;;;;;;21.63;6.68;;;8.60;90.90;;;;;;5050318;28;20052;-68
2022/04/06 07:58:35;;;;;;;21.73;6.68;;;8.60;91.00;;;;;;5050475;28;20049;-67
2022/04/06 08:01:02;;;;;;;19.85;6.40;;;8.60;90.70;;;;;;5050109;28;20099;-67
2022/04/06 08:03:29;;;;;;;20.55;7.75;;;8.70;90.70;;;;;;5049772;28;20617;-68
2022/04/06 08:05:56;;;;;;;19.67;6.45;;;8.70;90.60;;;;;;5049984;28;20124;-68
2022/04/06 08:08:21;;;;;;;16.30;7.32;;;8.70;90.70;;;;;;5049697;28;20190;-68
2022/04/06 08:10:47;;;;;;;25.20;7.72;;;8.80;90.40;;;;;;5050168;28;20099;-68
2022/04/06 08:13:13;;;;;;;17.55;7.00;;;8.80;90.30;;;;;;5050025;28;20040;-68
2022/04/06 08:15:40;;;;;;;17.60;7.20;;;8.90;90.10;;;;;;5050017;28;20580;-68
2022/04/06 08:18:06;;;;;;;13.85;6.32;;;8.80;90.00;;;;;;5049534;28;20123;-68
2022/04/06 08:20:32;;;;;;;15.93;6.57;;;8.80;90.10;;;;;;5050044;28;20045;-68
2022/04/06 08:22:59;;;;;;;18.80;6.90;;;8.90;89.90;;;;;;5049919;28;20045;-68
2022/04/06 08:25:28;;;;;;;17.08;6.28;;;8.90;89.70;;;;;;5049762;28;20048;-67
2022/04/06 08:28:18;;;;;;;13.30;5.93;;;9.00;89.70;;;;;;5049921;28;20131;-68
2022/04/06 08:30:53;;;;;;;18.42;7.68;;;9.00;89.40;;;;;;5049086;28;20049;-68
2022/04/06 08:33:19;;;;;;;17.38;6.63;;;8.90;89.30;;;;;;5048523;28;20409;-68
2022/04/06 08:35:47;;;;;;;11.57;5.90;;;9.00;89.40;;;;;;5049099;28;20059;-67
2022/04/06 08:38:15;;;;;;;10.23;5.97;;;9.10;89.30;;;;;;5048305;28;20474;-67
2022/04/06 08:40:42;;;;;;;22.95;7.00;;;9.20;88.80;;;;;;5047283;28;20060;-66
2022/04/06 08:43:42;;;;;;;18.95;8.02;;;9.20;88.80;;;;;;5049203;28;20049;-67
2022/04/06 08:46:11;;;;;;;23.48;7.03;;;9.30;88.70;;;;;;5048558;28;20103;-66
2022/04/06 08:48:38;;;;;;;16.85;5.75;;;9.40;88.80;;;;;;5049289;28;20041;-68
2022/04/06 08:51:09;;;;;;;22.15;6.68;;;9.50;88.70;;;;;;5047708;28;20033;-68
2022/04/06 08:53:39;;;;;;;13.65;6.15;;;9.60;88.40;;;;;;5049407;28;20053;-68
2022/04/06 08:56:06;;;;;;;16.38;5.78;;;9.60;88.10;;;;;;5048860;28;20561;-68
2022/04/06 08:58:32;;;;;;;22.80;6.18;;;9.70;88.00;;;;;;5049425;28;20041;-66
2022/04/06 09:00:58;;;;;;;15.50;6.40;;;9.70;87.80;;;;;;5049198;28;20098;-66
2022/04/06 09:03:24;;;;;;;20.80;7.93;;;9.80;87.70;;;;;;5049042;28;20041;-68
2022/04/06 09:06:04;;;;;;;17.02;5.68;;;9.80;87.60;;;;;;5049227;28;20048;-68
2022/04/06 09:08:44;;;;;;;18.95;6.50;;;10.00;87.30;;;;;;5048398;28;20119;-68
2022/04/06 09:11:20;;;;;;;19.00;7.43;;;10.00;87.20;;;;;;5045942;28;20039;-69
2022/04/06 09:13:48;;;;;;;17.92;7.55;;;10.10;87.00;;;;;;5060112;28;20128;-69
2022/04/06 09:16:17;;;;;;;21.08;6.80;;;10.20;87.00;;;;;;5046549;28;20044;-71
2022/04/06 09:18:48;;;;;;;21.05;7.75;;;10.30;87.20;;;;;;5044907;28;20117;-68
2022/04/06 09:21:18;;;;;;;13.50;6.38;;;10.40;86.80;;;;;;5043337;28;20485;-67
2022/04/06 09:23:48;;;;;;;18.27;6.90;;;10.40;86.70;;;;;;5029177;28;20041;-68
2022/04/06 09:26:17;;;;;;;17.08;6.88;;;10.30;86.30;;;;;;5028030;28;20049;-69
2022/04/06 09:28:45;;;;;;;20.17;6.13;;;10.30;86.00;;;;;;5034282;28;20048;-68
2022/04/06 09:31:17;;;;;;;21.80;7.35;;;10.30;86.30;;;;;;5046823;28;20049;-69
2022/04/06 09:34:04;;;;;;;15.65;6.18;;;10.30;86.30;;;;;;5043326;28;20049;-68
2022/04/06 09:36:32;;;;;;;13.52;5.47;;;10.30;86.30;;;;;;5043882;28;20041;-68
2022/04/06 09:38:58;;;;;;;20.10;7.88;;;10.30;86.10;;;;;;5049300;28;20482;-67
2022/04/06 09:41:25;;;;;;;16.75;6.25;;;10.20;86.30;;;;;;5046939;28;20124;-66
2022/04/06 09:43:54;;;;;;;23.30;6.85;;;10.30;86.50;;;;;;5040537;28;20045;-67
2022/04/06 09:49:10;;;;;;;25.02;7.13;;;10.20;86.30;;;;;;5042317;28;20359;-68
2022/04/06 09:51:41;;;;;;;19.05;6.75;;;10.20;86.60;;;;;;5043330;28;20049;-68
2022/04/06 09:54:09;;;;;;;20.90;6.72;;;10.20;86.50;;;;;;5047538;28;20138;-67
2022/04/06 09:56:36;;;;;;;20.88;7.57;;;10.20;86.60;;;;;;5046987;28;20387;-67
2022/04/06 09:59:03;;;;;;;17.52;6.75;;;10.30;86.40;;;;;;5046648;28;20045;-67
2022/04/06 10:01:38;;;;;;;20.08;7.60;;;10.30;86.10;;;;;;5046104;28;20616;-67
2022/04/06 10:04:14;;;;;;;18.85;7.35;;;10.40;85.90;;;;;;5062461;28;20102;-69
2022/04/06 10:06:42;;;;;;;18.27;7.25;;;10.40;86.10;;;;;;5047308;28;20071;-67
2022/04/06 10:09:09;;;;;;;23.15;7.45;;;10.40;86.20;;;;;;5039110;28;20080;-67
2022/04/06 10:11:39;;;;;;;14.60;7.45;;;10.30;86.20;;;;;;5047363;28;20403;-67
2022/04/06 10:14:06;;;;;;;24.88;7.88;;;10.30;86.40;;;;;;5045065;28;20039;-67
2022/04/06 10:16:32;;;;;;;28.58;10.07;;;10.30;86.50;;;;;;5019505;28;20054;-65
2022/04/06 10:18:59;;;;;;;25.33;7.50;;;10.30;86.80;;;;;;5042607;28;20053;-66
2022/04/06 10:21:43;;;;;;;21.27;8.68;;;10.40;86.90;;;;;;5052178;28;20057;-64
2022/04/06 10:24:31;;;;;;;23.13;7.63;;;10.40;87.20;;;;;;5047538;28;20107;-64
2022/04/06 10:27:08;;;;;;;23.70;7.43;;;10.40;87.30;;;;;;5045527;28;20043;-64
2022/04/06 10:30:05;;;;;;;27.98;8.18;;;10.40;87.10;;;;;;5048347;28;20045;-64
2022/04/06 10:32:34;;;;;;;16.02;7.10;;;10.50;86.90;;;;;;5049817;28;20397;-65
2022/04/06 10:35:22;;;;;;;27.70;9.20;;;10.60;86.80;;;;;;5051287;28;20057;-65
2022/04/06 10:38:16;;;;;;;22.33;7.82;;;10.60;86.90;;;;;;5039055;28;20060;-65
2022/04/06 10:40:45;;;;;;;21.40;8.77;;;10.60;87.10;;;;;;5024858;28;20053;-64
2022/04/06 10:43:36;;;;;;;23.73;8.88;;;10.60;87.50;;;;;;5051579;28;20128;-64
2022/04/06 10:46:09;;;;;;;21.08;7.32;;;10.60;87.40;;;;;;5051667;28;20506;-64
2022/04/06 10:48:35;;;;;;;18.75;7.88;;;10.70;87.40;;;;;;5051293;28;20461;-65
2022/04/06 10:51:28;;;;;;;23.92;7.60;;;10.70;87.50;;;;;;5033360;28;20099;-65
2022/04/06 10:53:54;;;;;;;26.05;7.18;;;10.90;87.30;;;;;;5051769;28;20437;-64
2022/04/06 10:56:22;;;;;;;23.75;7.95;;;11.00;87.00;;;;;;5067151;28;20451;-65
2022/04/06 10:58:56;;;;;;;20.35;7.65;;;11.10;86.40;;;;;;5059512;28;20047;-64
2022/04/06 11:01:29;;;;;;;22.60;7.25;;;11.20;86.20;;;;;;5032120;28;20503;-65
2022/04/06 11:04:04;;;;;;;19.65;6.07;;;11.30;86.00;;;;;;5051082;28;20513;-66
2022/04/06 11:06:48;;;;;;;19.88;7.35;;;11.40;85.30;;;;;;5051284;28;20175;-65
2022/04/06 11:12:24;;;;;;;19.00;7.43;;;11.60;84.90;;;;;;5047646;28;20044;-64
2022/04/06 11:15:00;;;;;;;27.27;8.57;;;11.70;83.50;;;;;;5051054;28;20155;-65
2022/04/06 11:17:45;;;;;;;18.77;7.13;;;11.90;83.60;;;;;;5050634;28;20045;-64
2022/04/06 11:20:28;;;;;;;19.17;6.47;;;12.00;83.30;;;;;;5047731;28;20048;-65
2022/04/06 11:22:56;;;;;;;14.02;5.95;;;12.10;83.00;;;;;;5047769;28;20033;-64
2022/04/06 11:25:28;;;;;;;19.65;6.95;;;12.00;82.50;;;;;;5045415;28;20049;-64
2022/04/06 11:27:55;;;;;;;12.98;5.38;;;12.20;82.80;;;;;;5050704;28;20095;-64
2022/04/06 11:30:26;;;;;;;13.52;5.93;;;12.20;81.90;;;;;;5050386;28;20136;-63
2022/04/06 11:32:59;;;;;;;16.20;5.70;;;12.30;81.00;;;;;;5050304;28;20127;-63
2022/04/06 11:35:36;;;;;;;17.00;5.82;;;12.30;81.40;;;;;;5050881;28;20049;-63
2022/04/06 11:38:07;;;;;;;26.42;8.20;;;12.30;80.90;;;;;;5050187;28;20044;-64
2022/04/06 11:40:33;;;;;;;19.08;7.70;;;12.30;81.30;;;;;;5050813;28;20045;-64
2022/04/06 11:43:04;;;;;;;20.33;7.10;;;12.30;80.80;;;;;;5049492;28;20456;-65
2022/04/06 11:45:39;;;;;;;17.27;8.23;;;12.40;81.30;;;;;;5051384;28;20123;-65
2022/04/06 11:48:06;;;;;;;22.67;6.47;;;12.40;81.60;;;;;;5051728;28;20486;-65
2022/04/06 11:50:36;;;;;;;23.02;6.72;;;12.40;81.20;;;;;;5049891;28;20049;-67
2022/04/06 11:53:03;;;;;;;22.23;7.63;;;12.30;81.50;;;;;;5051847;28;20383;-67
2022/04/06 11:55:48;;;;;;;18.77;7.13;;;12.30;82.00;;;;;;5051747;28;20045;-66
2022/04/06 11:58:37;;;;;;;22.90;6.13;;;12.30;81.20;;;;;;5050995;28;20041;-65
2022/04/06 12:01:11;;;;;;;23.50;7.47;;;12.30;81.00;;;;;;5047806;28;20048;-65
2022/04/06 12:03:39;;;;;;;22.13;6.57;;;12.10;80.90;;;;;;5050644;28;20040;-65
2022/04/06 12:06:10;;;;;;;23.05;5.80;;;12.10;81.70;;;;;;5047398;28;20037;-65
2022/04/06 12:08:36;;;;;;;26.65;8.38;;;12.10;81.90;;;;;;5051232;28;20044;-65
2022/04/06 12:11:03;;;;;;;23.20;7.25;;;12.10;81.70;;;;;;5050565;28;20060;-65
2022/04/06 12:13:31;;;;;;;21.30;6.50;;;12.20;81.60;;;;;;5050745;28;20049;-65
2022/04/06 12:15:58;;;;;;;19.77;5.93;;;12.10;81.30;;;;;;5051324;28;20190;-65
2022/04/06 12:18:25;;;;;;;25.13;7.63;;;12.10;81.40;;;;;;5051120;28;20116;-65
2022/04/06 12:20:51;;;;;;;21.33;6.60;;;12.10;81.30;;;;;;5051068;28;20071;-65
2022/04/06 12:23:19;;;;;;;17.00;6.20;;;12.10;80.90;;;;;;5050905;28;20075;-64
2022/04/06 12:25:45;;;;;;;20.40;6.97;;;12.10;81.40;;;;;;5050090;28;20044;-65
2022/04/06 12:28:22;;;;;;;18.80;7.22;;;12.10;81.10;;;;;;5049254;28;20082;-65
2022/04/06 12:30:58;;;;;;;21.25;6.57;;;12.10;81.80;;;;;;5046228;28;20037;-66
2022/04/06 12:33:37;;;;;;;20.88;6.80;;;12.00;81.70;;;;;;5050257;28;20052;-66
2022/04/06 12:36:23;;;;;;;17.50;7.10;;;12.00;81.40;;;;;;5049016;28;20529;-66
2022/04/06 12:39:13;;;;;;;21.73;6.85;;;12.00;80.90;;;;;;5050632;28;20087;-66
2022/04/06 12:42:02;;;;;;;20.92;7.38;;;12.10;81.20;;;;;;5050710;28;20133;-66
2022/04/06 12:44:33;;;;;;;22.75;6.22;;;11.90;81.20;;;;;;5050831;28;20458;-66
2022/04/06 12:46:59;;;;;;;22.88;7.95;;;11.90;82.10;;;;;;5050531;28;20045;-67
2022/04/06 12:49:39;;;;;;;25.27;6.78;;;11.90;82.30;;;;;;5050640;28;20115;-67
2022/04/06 12:52:25;;;;;;;18.50;6.22;;;11.90;82.10;;;;;;5050288;28;20060;-66
2022/04/06 12:54:51;;;;;;;16.77;6.45;;;11.80;81.60;;;;;;5049963;28;20449;-67
2022/04/06 12:57:29;;;;;;;20.63;6.47;;;11.70;82.50;;;;;;5050125;28;20045;-67